ADDS METAR Data INFO
IDs: Format: Raw Decoded Include TAF

Data at: 1951 UTC 15 Dec 2017

KECG 151854Z 22015G22KT 10SM CLR 15/07 A2983 RMK AO2 SLP102 T01500067
KECG 151754Z 12009KT 10SM CLR 14/10 A2985 RMK AO2 SLP107 T01390100 10139 20033 58044
KECG 151654Z 12011KT 10SM FEW021 13/09 A2990 RMK AO2 SLP124 T01330094
KECG 151554Z 11007KT 10SM FEW039 12/09 A2995 RMK AO2 SLP141 T01170089
KECG 151454Z 33003KT 10SM CLR 07/04 A2998 RMK AO2 SLP151 T00670044 58014
KECG 151354Z 02005KT 10SM CLR 05/03 A2999 RMK AO2 SLP156 T00500033
KECG 151254Z 36006KT 10SM CLR 04/03 A3001 RMK AO2 SLP162 T00390028
KECG 151154Z 36008KT 10SM CLR 03/02 A3002 RMK AO2 SLP166 T00330022 10039 20017 58005
KECG 151054Z AUTO 36006KT 10SM CLR 03/02 A3003 RMK AO2 SLP169 T00280017
KECG 150954Z AUTO 36006KT 10SM CLR 03/01 A3003 RMK AO2 SLP168 T00280011
KECG 150854Z AUTO 01006KT 10SM CLR 02/01 A3004 RMK AO2 SLP171 T00220011 58002
KECG 150754Z AUTO 36007KT 10SM CLR 03/02 A3005 RMK AO2 SLP174 T00280017
KECG 150654Z AUTO 01006KT 10SM CLR 03/02 A3005 RMK AO2 SLP175 T00330017
KECG 150554Z AUTO 02008KT 10SM CLR 04/02 A3004 RMK AO2 SLP173 T00390017 10067 20033 58004
KECG 150454Z 01008KT 10SM CLR 04/01 A3006 RMK AO2 SLP179 T00390006 401390033
KECG 150354Z 02006KT 10SM CLR 04/01 A3007 RMK AO2 SLP182 T00440011
KECG 150254Z 02010KT 10SM CLR 06/02 A3006 RMK AO2 SLP177 T00560017 51018
KECG 150154Z 03008KT 10SM CLR 06/02 A3004 RMK AO2 SLP173 T00560017
KECG 150054Z 02010KT 10SM CLR 06/02 A3003 RMK AO2 SLP170 T00560022
KECG 142354Z 03009KT 10SM CLR 07/02 A3000 RMK AO2 SLP160 T00670017 10139 20067 51042
KECG 142254Z 04010KT 10SM CLR 07/01 A2997 RMK AO2 SLP147 T00720011
KECG 142154Z 04011KT 10SM CLR 08/02 A2993 RMK AO2 PRESRR SLP134 T00780017
KECG 142054Z 33003KT 10SM CLR 13/00 A2988 RMK AO2 SLP118 T01280000 53021
KECG 141954Z 31009KT 10SM CLR 13/M01 A2986 RMK AO2 SLP110 T01331006
KECG 141854Z 29010G18KT 10SM CLR 14/M01 A2983 RMK AO2 SLP102 T01391006
KECG 141754Z 28015G20KT 10SM CLR 14/M01 A2982 RMK AO2 PK WND 28026/1729 SLP097 T01391006 10139 20033 51003
KECG 141654Z 28012KT 10SM CLR 13/00 A2981 RMK AO2 SLP094 T01280000
KECG 141554Z 27009KT 10SM CLR 11/M01 A2983 RMK AO2 SLP100 T01061006
KECG 141454Z 26008KT 10SM CLR 08/M02 A2981 RMK AO2 SLP094 T00831017 53026
KECG 141354Z 25013KT 10SM CLR 06/M03 A2978 RMK AO2 SLP083 T00611028
KECG 141254Z 24010KT 10SM CLR 04/M03 A2976 RMK AO2 SLP077 T00441028
KECG 141154Z 24011KT 10SM CLR 04/M03 A2973 RMK AO2 SLP068 T00391033 10056 20039 53017
KECG 141054Z AUTO 22011KT 10SM CLR 04/M03 A2970 RMK AO2 SLP056 T00391028
KECG 140954Z AUTO 23012KT 10SM CLR 04/M03 A2968 RMK AO2 SLP050 T00441033
KECG 140854Z AUTO 22013KT 10SM CLR 04/M03 A2968 RMK AO2 SLP051 T00441033 56022
KECG 140754Z AUTO 22014G21KT 10SM CLR 05/M03 A2970 RMK AO2 SLP058 T00501033